Time;durP1;ratioP1;P1;durP2;ratioP2;P2;SDS_P1;SDS_P2;PMS_P1;PMS_P2;Temp;Humidity;BMP_temperature;BMP_pressure;BME280_temperature;BME280_humidity;BME280_pressure;Samples;Min_cycle;Max_cycle;Signal;HPM_P1;HPM_P2
2022/03/26 00:01:37;;;;;;;29.25;14.77;;;;;;;-142.75;100.00;79163.63;5047010;28;20025;-67
2022/03/26 00:04:03;;;;;;;27.90;14.35;;;;;;;-142.75;100.00;79157.72;5046827;28;20027;-68
2022/03/26 00:06:28;;;;;;;26.80;14.77;;;;;;;-142.75;100.00;79149.81;5047123;28;20027;-69
2022/03/26 00:08:54;;;;;;;34.83;15.35;;;;;;;-142.75;100.00;79149.81;5048028;28;20048;-68
2022/03/26 00:11:20;;;;;;;29.40;15.07;;;;;;;-142.75;100.00;79155.72;5046964;28;20103;-68
2022/03/26 00:13:45;;;;;;;31.75;15.27;;;;;;;-142.75;100.00;79155.72;5048177;28;20033;-69
2022/03/26 00:16:11;;;;;;;26.97;13.73;;;;;;;-142.75;100.00;79157.72;5027067;28;20024;-66
2022/03/26 00:18:38;;;;;;;25.00;13.50;;;;;;;-142.75;100.00;79165.59;5027452;28;20785;-67
2022/03/26 00:21:03;;;;;;;30.57;15.43;;;;;;;-142.75;100.00;79161.66;5028969;28;20022;-67
2022/03/26 00:23:28;;;;;;;29.50;14.52;;;;;;;-142.75;100.00;79153.75;5040498;28;20028;-67
2022/03/26 00:25:55;;;;;;;29.37;14.57;;;;;;;-142.75;100.00;79155.72;5048044;28;20031;-68
2022/03/26 00:28:20;;;;;;;29.13;13.40;;;;;;;-142.75;100.00;79153.75;5047658;28;20033;-65
2022/03/26 00:30:45;;;;;;;29.37;13.97;;;;;;;-142.75;100.00;79161.66;5046628;28;20107;-67
2022/03/26 00:33:10;;;;;;;31.00;14.23;;;;;;;-142.75;100.00;79169.53;5047469;28;20290;-67
2022/03/26 00:35:36;;;;;;;30.48;13.77;;;;;;;-142.75;100.00;79167.56;5047941;28;20501;-66
2022/03/26 00:38:01;;;;;;;32.22;16.45;;;;;;;-142.75;100.00;79183.31;5047593;28;20028;-67
2022/03/26 00:40:27;;;;;;;28.10;12.52;;;;;;;-142.75;100.00;79185.28;5046350;28;20025;-68
2022/03/26 00:42:53;;;;;;;28.42;13.25;;;;;;;-142.75;100.00;79199.06;5046475;28;20486;-68
2022/03/26 00:45:19;;;;;;;25.07;13.63;;;;;;;-142.75;100.00;79203.00;5046470;28;20108;-67
2022/03/26 00:47:44;;;;;;;28.15;12.57;;;;;;;-142.75;100.00;79208.91;5047631;28;20313;-67
2022/03/26 00:50:10;;;;;;;20.90;11.00;;;;;;;-142.75;100.00;79218.75;5048766;28;20035;-67
2022/03/26 00:52:36;;;;;;;;;;;;;;;-142.75;100.00;79224.69;5046719;28;20063;-66
2022/03/26 00:55:01;;;;;;;19.67;9.70;;;;;;;-142.75;100.00;79248.31;5045857;28;20379;-66
2022/03/26 00:57:26;;;;;;;21.92;11.25;;;;;;;-142.75;100.00;79283.78;5047755;28;20025;-67
2022/03/26 00:59:52;;;;;;;25.35;12.98;;;;;;;-142.75;100.00;79295.59;5045971;28;20021;-66
2022/03/26 01:02:17;;;;;;;27.27;13.10;;;;;;;-142.75;100.00;79319.22;5047829;28;20017;-67
2022/03/26 01:04:43;;;;;;;27.13;13.32;;;;;;;-142.75;100.00;79327.09;5047928;28;20023;-67
2022/03/26 01:07:08;;;;;;;31.92;13.07;;;;;;;-142.75;100.00;79329.06;5047568;28;20033;-67
2022/03/26 01:09:34;;;;;;;32.28;14.38;;;;;;;-142.75;100.00;79335.00;5047247;28;20021;-67
2022/03/26 01:11:59;;;;;;;27.67;13.25;;;;;;;-142.75;100.00;79350.75;5047601;28;20115;-67
2022/03/26 01:14:25;;;;;;;25.70;12.48;;;;;;;-142.75;100.00;79360.59;5047577;28;20090;-67
2022/03/26 01:16:50;;;;;;;26.60;12.77;;;;;;;-142.75;100.00;79368.47;5046168;28;20040;-69
2022/03/26 01:19:16;;;;;;;23.45;11.60;;;;;;;-142.75;100.00;79368.47;5046799;28;20401;-69
2022/03/26 01:21:41;;;;;;;25.63;12.02;;;;;;;-142.75;100.00;79378.31;5047559;28;20025;-68
2022/03/26 01:24:07;;;;;;;24.08;12.55;;;;;;;-142.75;100.00;79370.44;5047445;28;20090;-68
2022/03/26 01:26:32;;;;;;;22.95;12.30;;;;;;;-142.75;100.00;79372.41;5047388;28;20064;-68
2022/03/26 01:28:57;;;;;;;30.85;13.38;;;;;;;-142.75;100.00;79370.44;5046902;28;20108;-68
2022/03/26 01:31:23;;;;;;;27.87;13.70;;;;;;;-142.75;100.00;79350.75;5046208;28;20032;-68
2022/03/26 01:33:49;;;;;;;31.10;13.68;;;;;;;-142.75;100.00;79354.69;5047321;28;20029;-67
2022/03/26 01:36:14;;;;;;;27.67;14.55;;;;;;;-142.75;100.00;79350.75;5047606;28;20017;-69
2022/03/26 01:38:39;;;;;;;28.52;13.85;;;;;;;-142.75;100.00;79342.88;5049301;28;20033;-69
2022/03/26 01:41:05;;;;;;;32.38;13.23;;;;;;;-142.75;100.00;79344.84;5049774;28;20037;-69
2022/03/26 01:43:30;;;;;;;29.27;13.30;;;;;;;-142.75;100.00;79348.78;5050670;28;20021;-68
2022/03/26 01:45:55;;;;;;;28.63;14.15;;;;;;;-142.75;100.00;79348.78;5051065;28;20116;-68
2022/03/26 01:48:21;;;;;;;30.92;15.50;;;;;;;-142.75;100.00;79336.94;5043248;28;20513;-68
2022/03/26 01:50:46;;;;;;;35.08;15.52;;;;;;;-142.75;100.00;79333.00;5028499;28;20031;-68
2022/03/26 01:53:12;;;;;;;37.78;16.15;;;;;;;-142.75;100.00;79331.03;5031312;28;20036;-70
2022/03/26 01:55:37;;;;;;;30.00;15.80;;;;;;;-142.75;100.00;79325.13;5031037;28;20112;-68
2022/03/26 01:58:02;;;;;;;31.80;16.25;;;;;;;-142.75;100.00;79315.28;5041753;28;20391;-67
2022/03/26 02:00:28;;;;;;;37.35;15.27;;;;;;;-142.75;100.00;79321.19;5050883;28;20021;-67
2022/03/26 02:02:54;;;;;;;32.55;16.17;;;;;;;-142.75;100.00;79315.28;5050886;28;20071;-67
2022/03/26 02:05:20;;;;;;;43.63;18.30;;;;;;;-142.75;100.00;79338.94;5050916;28;20577;-67
2022/03/26 02:07:47;;;;;;;31.00;16.07;;;;;;;-142.75;100.00;79335.00;5050726;28;20033;-67
2022/03/26 02:10:14;;;;;;;36.07;17.20;;;;;;;-142.75;100.00;79329.06;5050496;28;20375;-66
2022/03/26 02:12:40;;;;;;;35.10;17.27;;;;;;;-142.75;100.00;79317.25;5050648;28;20036;-68
2022/03/26 02:15:07;;;;;;;41.20;17.30;;;;;;;-142.75;100.00;79309.38;5049316;28;20059;-67
2022/03/26 02:17:33;;;;;;;35.80;15.33;;;;;;;-142.75;100.00;79313.31;5050544;28;20068;-67
2022/03/26 02:19:59;;;;;;;31.43;15.83;;;;;;;-142.75;100.00;79311.34;5051400;28;20029;-66
2022/03/26 02:22:27;;;;;;;33.00;17.20;;;;;;;-142.75;100.00;79321.19;5050540;28;20096;-67
2022/03/26 02:24:53;;;;;;;31.93;16.33;;;;;;;-142.75;100.00;79327.09;5050359;28;20103;-67
2022/03/26 02:27:18;;;;;;;37.05;16.63;;;;;;;-142.75;100.00;79327.09;5049124;28;20112;-68
2022/03/26 02:29:44;;;;;;;34.63;17.00;;;;;;;-142.75;100.00;79327.09;5049983;28;20422;-67
2022/03/26 02:32:09;;;;;;;38.40;18.17;;;;;;;-142.75;100.00;79329.06;5050253;28;20112;-65
2022/03/26 02:34:35;;;;;;;33.60;15.82;;;;;;;-142.75;100.00;79327.09;5048974;28;20102;-66
2022/03/26 02:37:00;;;;;;;34.80;16.40;;;;;;;-142.75;100.00;79323.16;5048845;28;20023;-67
2022/03/26 02:39:27;;;;;;;34.38;17.35;;;;;;;-142.75;100.00;79319.22;5030419;28;20025;-67
2022/03/26 02:41:53;;;;;;;37.60;17.80;;;;;;;-142.75;100.00;79317.25;5028561;28;20026;-67
2022/03/26 02:44:19;;;;;;;42.35;19.98;;;;;;;-142.75;100.00;79309.38;5028402;28;20116;-67
2022/03/26 02:46:45;;;;;;;33.42;16.35;;;;;;;-142.75;100.00;79311.34;5028397;28;20033;-66
2022/03/26 02:49:12;;;;;;;31.20;15.83;;;;;;;-142.75;100.00;79313.31;5037339;28;20317;-67
2022/03/26 02:51:37;;;;;;;35.87;15.03;;;;;;;-142.75;100.00;79311.34;5028750;28;20453;-67
2022/03/26 02:54:02;;;;;;;32.97;16.20;;;;;;;-142.75;100.00;79305.44;5037169;28;20021;-67
2022/03/26 02:56:28;;;;;;;45.53;17.63;;;;;;;-142.75;100.00;79313.31;5047953;28;20194;-67
2022/03/26 02:58:53;;;;;;;41.97;19.17;;;;;;;-142.75;100.00;79329.06;5048711;28;21420;-67
2022/03/26 03:01:19;;;;;;;35.43;16.93;;;;;;;-142.75;100.00;79331.03;5047897;28;20029;-68
2022/03/26 03:03:45;;;;;;;36.73;16.43;;;;;;;-142.75;100.00;79319.22;5048985;28;20309;-68
2022/03/26 03:06:10;;;;;;;39.92;18.63;;;;;;;-142.75;100.00;79315.28;5048921;28;20507;-67
2022/03/26 03:08:36;;;;;;;33.65;16.90;;;;;;;-142.75;100.00;79305.44;5048828;28;20020;-67
2022/03/26 03:11:01;;;;;;;32.47;15.60;;;;;;;-142.75;100.00;79309.38;5047950;28;20025;-67
2022/03/26 03:13:27;;;;;;;37.05;16.58;;;;;;;-142.75;100.00;79315.28;5048931;28;20463;-69
2022/03/26 03:15:52;;;;;;;29.30;15.38;;;;;;;-142.75;100.00;79321.19;5028105;28;20021;-67
2022/03/26 03:18:18;;;;;;;27.30;14.65;;;;;;;-142.75;100.00;79333.00;5026442;28;20014;-69
2022/03/26 03:20:44;;;;;;;26.53;13.93;;;;;;;-142.75;100.00;79374.38;5028761;28;20026;-67
2022/03/26 03:23:10;;;;;;;29.05;13.80;;;;;;;-142.75;100.00;79376.34;5029078;28;20029;-67
2022/03/26 03:25:35;;;;;;;22.98;11.48;;;;;;;-142.75;100.00;79400.00;5028973;28;20029;-67
2022/03/26 03:28:01;;;;;;;20.85;11.35;;;;;;;-142.75;100.00;79390.13;5027275;28;20017;-67
2022/03/26 03:30:26;;;;;;;21.52;11.88;;;;;;;-142.75;100.00;79388.16;5028870;28;20052;-66
2022/03/26 03:32:52;;;;;;;37.67;14.80;;;;;;;-142.75;100.00;79382.25;5028746;28;20021;-67
2022/03/26 03:35:18;;;;;;;37.47;17.15;;;;;;;-142.75;100.00;79384.22;5028684;28;20060;-67
2022/03/26 03:37:43;;;;;;;36.92;16.55;;;;;;;-142.75;100.00;79386.19;5028961;28;20048;-67
2022/03/26 03:40:10;;;;;;;36.47;16.23;;;;;;;-142.75;100.00;79386.19;5028249;28;20021;-67
2022/03/26 03:42:36;;;;;;;40.20;17.20;;;;;;;-142.75;100.00;79390.13;5036448;28;20275;-67
2022/03/26 03:45:02;;;;;;;36.53;18.08;;;;;;;-142.75;100.00;79401.97;5048360;28;20017;-67
2022/03/26 03:47:27;;;;;;;39.73;17.57;;;;;;;-142.75;100.00;79394.09;5048176;28;20025;-68
2022/03/26 03:49:53;;;;;;;37.10;17.65;;;;;;;-142.75;100.00;79392.13;5037880;28;20037;-66
2022/03/26 03:52:18;;;;;;;38.92;17.92;;;;;;;-142.75;100.00;79396.06;5028373;28;20021;-67
2022/03/26 03:54:44;;;;;;;35.35;17.48;;;;;;;-142.75;100.00;79403.94;5028153;28;20052;-66
2022/03/26 03:57:09;;;;;;;42.85;18.63;;;;;;;-142.75;100.00;79409.84;5028267;28;20483;-66
2022/03/26 03:59:35;;;;;;;34.78;16.70;;;;;;;-142.75;100.00;79415.75;5028446;28;20071;-67
2022/03/26 04:02:00;;;;;;;41.78;17.38;;;;;;;-142.75;100.00;79415.75;5028535;28;20121;-67
2022/03/26 04:04:25;;;;;;;39.53;17.00;;;;;;;-142.75;100.00;79413.78;5027644;28;20026;-67
2022/03/26 04:06:51;;;;;;;35.00;17.50;;;;;;;-142.75;100.00;79423.63;5028882;28;20850;-69
2022/03/26 04:09:16;;;;;;;30.70;15.30;;;;;;;-142.75;100.00;79439.38;5027117;28;20272;-66
2022/03/26 04:11:41;;;;;;;33.63;16.60;;;;;;;-142.75;100.00;79447.28;5028772;28;20280;-66
2022/03/26 04:14:07;;;;;;;30.73;14.03;;;;;;;-142.75;100.00;79445.28;5028660;28;20284;-67
2022/03/26 04:16:32;;;;;;;31.85;14.82;;;;;;;-142.75;100.00;79451.22;5028574;28;20407;-67
2022/03/26 04:18:58;;;;;;;34.13;16.30;;;;;;;-142.75;100.00;79457.13;5027122;28;20028;-69
2022/03/26 04:21:24;;;;;;;35.20;16.05;;;;;;;-142.75;100.00;79445.28;5028327;28;20384;-67
2022/03/26 04:23:49;;;;;;;34.38;16.75;;;;;;;-142.75;100.00;79451.22;5026629;28;20049;-67
2022/03/26 04:26:15;;;;;;;37.75;16.67;;;;;;;-142.75;100.00;79441.34;5027815;28;20060;-67
2022/03/26 04:28:40;;;;;;;40.47;18.13;;;;;;;-142.75;100.00;79433.47;5026215;28;20029;-66
2022/03/26 04:31:05;;;;;;;37.00;18.05;;;;;;;-142.75;100.00;79431.50;5027721;28;20025;-66
2022/03/26 04:33:30;;;;;;;38.63;19.45;;;;;;;-142.75;100.00;79419.69;5034300;28;20053;-69
2022/03/26 04:35:56;;;;;;;39.00;18.23;;;;;;;-142.75;100.00;79415.75;5047389;28;20029;-67
2022/03/26 04:38:21;;;;;;;42.07;19.60;;;;;;;-142.75;100.00;79413.78;5047125;28;20031;-68
2022/03/26 04:40:46;;;;;;;40.15;18.67;;;;;;;-142.75;100.00;79417.72;5047148;28;20278;-67
2022/03/26 04:43:13;;;;;;;40.85;18.17;;;;;;;-142.75;100.00;79417.72;5047396;28;20027;-67
2022/03/26 04:45:38;;;;;;;43.80;17.03;;;;;;;-142.75;100.00;79425.59;5047243;28;20025;-67
2022/03/26 04:48:04;;;;;;;41.83;18.75;;;;;;;-142.75;100.00;79433.47;5047009;28;20028;-67
2022/03/26 04:50:29;;;;;;;37.35;18.15;;;;;;;-142.75;100.00;79451.22;5048498;28;20037;-67
2022/03/26 04:52:55;;;;;;;32.90;17.07;;;;;;;-142.75;100.00;79441.34;5047340;28;20033;-67
2022/03/26 04:55:20;;;;;;;37.15;16.35;;;;;;;-142.75;100.00;79451.22;5046702;28;20025;-69
2022/03/26 04:57:48;;;;;;;34.97;18.00;;;;;;;-142.75;100.00;79457.13;5046069;28;20515;-66
2022/03/26 05:00:15;;;;;;;33.63;17.63;;;;;;;-142.75;100.00;79463.03;5046985;28;20028;-67
2022/03/26 05:02:41;;;;;;;36.87;16.90;;;;;;;-142.75;100.00;79465.00;5034086;28;20045;-67
2022/03/26 05:05:08;;;;;;;39.97;17.48;;;;;;;-142.75;100.00;79466.97;5027536;28;20061;-67
2022/03/26 05:07:45;;;;;;;40.43;17.37;;;;;;;-142.75;100.00;79480.75;5027407;28;20056;-68
2022/03/26 05:10:11;;;;;;;34.13;17.17;;;;;;;-142.75;100.00;79474.84;5027052;28;20542;-67
2022/03/26 05:12:36;;;;;;;37.65;19.17;;;;;;;-142.75;100.00;79480.75;5028361;28;20051;-67
2022/03/26 05:15:01;;;;;;;48.47;21.70;;;;;;;-142.75;100.00;79466.97;5030683;28;20120;-68
2022/03/26 05:17:27;;;;;;;42.53;19.70;;;;;;;-142.75;100.00;79465.00;5042431;28;20124;-67
2022/03/26 05:19:52;;;;;;;47.70;21.33;;;;;;;-142.75;100.00;79463.03;5051635;28;20275;-67
2022/03/26 05:22:17;;;;;;;44.40;19.23;;;;;;;-142.75;100.00;79465.00;5043143;28;20024;-67
2022/03/26 05:24:43;;;;;;;43.53;19.15;;;;;;;-142.75;100.00;79463.03;5049551;28;20025;-67
2022/03/26 05:27:08;;;;;;;46.47;20.40;;;;;;;-142.75;100.00;79457.13;5050952;28;20021;-66
2022/03/26 05:29:33;;;;;;;48.75;21.08;;;;;;;-142.75;100.00;79451.22;5051328;28;20033;-67
2022/03/26 05:31:59;;;;;;;43.70;19.30;;;;;;;-142.75;100.00;79457.13;5041625;28;20021;-67
2022/03/26 05:34:24;;;;;;;34.42;16.05;;;;;;;-142.75;100.00;79463.03;5031341;28;20026;-68
2022/03/26 05:36:50;;;;;;;42.78;15.60;;;;;;;-142.75;100.00;79463.03;5038811;28;20052;-65
2022/03/26 05:39:15;;;;;;;42.95;18.10;;;;;;;-142.75;100.00;79472.88;5064918;22;20153;-65
2022/03/26 05:41:41;;;;;;;36.15;15.82;;;;;;;-142.75;100.00;79474.84;5048989;28;20418;-66
2022/03/26 05:44:08;;;;;;;36.50;16.85;;;;;;;-142.75;100.00;79482.72;5069624;28;20485;-69
2022/03/26 05:46:33;;;;;;;33.20;15.70;;;;;;;-142.75;100.00;79490.59;5071458;28;20551;-69
2022/03/26 05:48:58;;;;;;;36.08;15.95;;;;;;;-142.75;100.00;79482.72;5071039;28;20021;-69
2022/03/26 05:51:24;;;;;;;30.90;14.77;;;;;;;-142.75;100.00;79484.69;5072382;28;20032;-69
2022/03/26 05:53:50;;;;;;;36.00;15.77;;;;;;;-142.75;100.00;79486.66;5070347;28;20032;-66
2022/03/26 05:56:16;;;;;;;33.47;16.17;;;;;;;-142.75;100.00;79482.72;5071174;28;20044;-66
2022/03/26 05:58:41;;;;;;;38.17;17.52;;;;;;;-142.75;100.00;79465.00;5070839;28;20094;-65
2022/03/26 06:01:06;;;;;;;41.67;18.55;;;;;;;-142.75;100.00;79447.28;5071001;28;20064;-66
2022/03/26 06:03:31;;;;;;;36.03;17.77;;;;;;;-142.75;100.00;79445.28;5070551;28;20028;-65
2022/03/26 06:05:58;;;;;;;44.83;20.87;;;;;;;-142.75;100.00;79425.59;5070386;28;20686;-66
2022/03/26 06:08:24;;;;;;;45.17;19.50;;;;;;;-142.75;100.00;79407.88;5056191;28;20271;-65
2022/03/26 06:10:49;;;;;;;55.45;23.45;;;;;;;-142.75;100.00;79386.19;5050575;28;20474;-66
2022/03/26 06:13:14;;;;;;;38.17;18.73;;;;;;;-142.75;100.00;79362.56;5050488;28;20382;-66
2022/03/26 06:15:41;;;;;;;36.90;17.97;;;;;;;-142.75;100.00;79346.81;5050960;28;20029;-66
2022/03/26 06:18:06;;;;;;;38.27;15.53;;;;;;;-142.75;100.00;79338.94;5050862;28;20621;-65
2022/03/26 06:20:32;;;;;;;30.13;12.57;;;;;;;-142.75;100.00;79346.81;5059646;28;20059;-65
2022/03/26 06:22:57;;;;;;;21.58;10.32;;;;;;;-142.75;100.00;79354.69;5050945;28;20029;-66
2022/03/26 06:25:22;;;;;;;24.10;12.27;;;;;;;-142.75;100.00;79342.88;5050335;28;20470;-65
2022/03/26 06:27:48;;;;;;;31.05;14.77;;;;;;;-142.75;100.00;79342.88;5049187;28;20025;-65
2022/03/26 06:30:15;;;;;;;35.67;18.08;;;;;;;-142.75;100.00;79338.94;5050506;28;20103;-66
2022/03/26 06:32:40;;;;;;;34.07;16.10;;;;;;;-142.75;100.00;79331.03;5050127;28;20016;-65
2022/03/26 06:35:06;;;;;;;37.65;17.58;;;;;;;-142.75;100.00;79327.09;5063351;28;20031;-65
2022/03/26 06:37:31;;;;;;;38.20;17.77;;;;;;;-142.75;100.00;79315.28;5056259;28;20149;-66
2022/03/26 06:39:57;;;;;;;38.78;17.98;;;;;;;-142.75;100.00;79317.25;5049522;28;20024;-66
2022/03/26 06:42:22;;;;;;;38.33;17.92;;;;;;;-142.75;100.00;79299.53;5060311;28;20166;-65
2022/03/26 06:44:47;;;;;;;38.35;17.23;;;;;;;-142.75;100.00;79285.75;5069743;28;20501;-66
2022/03/26 06:47:13;;;;;;;37.70;17.43;;;;;;;-142.75;100.00;79297.56;5052227;28;20582;-65
2022/03/26 06:49:39;;;;;;;30.85;15.82;;;;;;;-142.75;100.00;79268.00;5049609;28;20786;-66
2022/03/26 06:52:05;;;;;;;36.50;18.13;;;;;;;-142.75;100.00;79238.47;5051066;28;20098;-66
2022/03/26 06:54:31;;;;;;;45.40;19.30;;;;;;;-142.75;100.00;79210.88;5050040;28;20028;-67
2022/03/26 06:56:56;;;;;;;50.60;21.05;;;;;;;-142.75;100.00;79179.38;5050363;28;20403;-66
2022/03/26 06:59:23;;;;;;;40.22;19.35;;;;;;;-142.75;100.00;79161.66;5049550;28;20023;-66
2022/03/26 07:01:48;;;;;;;43.07;20.80;;;;;;;-142.75;100.00;79141.94;5049398;28;20451;-66
2022/03/26 07:04:14;;;;;;;47.75;21.17;;;;;;;-142.75;100.00;79130.13;5067323;28;20020;-66
2022/03/26 07:06:39;;;;;;;47.60;21.53;;;;;;;-142.75;100.00;79100.59;5068765;28;20032;-66
2022/03/26 07:09:04;;;;;;;53.73;23.50;;;;;;;-142.75;100.00;79092.69;5057181;28;20329;-66
2022/03/26 07:11:29;;;;;;;48.47;23.20;;;;;;;-142.75;100.00;79084.81;5048697;28;20314;-66
2022/03/26 07:13:55;;;;;;;47.53;22.15;;;;;;;-142.75;100.00;79061.19;5047439;28;20021;-66
2022/03/26 07:16:20;;;;;;;53.00;22.98;;;;;;;-142.75;100.00;79031.66;5047281;28;20052;-65
2022/03/26 07:18:45;;;;;;;47.33;21.38;;;;;;;-142.75;100.00;78996.19;5048259;28;20023;-65
2022/03/26 07:21:10;;;;;;;49.23;22.43;;;;;;;-142.75;100.00;78966.66;5048305;28;20055;-66
2022/03/26 07:23:36;;;;;;;52.03;23.57;;;;;;;-142.75;100.00;78929.22;5048450;28;20271;-66
2022/03/26 07:26:02;;;;;;;48.35;23.23;;;;;;;-142.75;100.00;78911.50;5047087;28;20280;-66
2022/03/26 07:28:27;;;;;;;54.53;24.65;;;;;;;-142.75;100.00;78870.13;5048341;28;20494;-65
2022/03/26 07:30:53;;;;;;;58.75;25.33;;;;;;;-142.75;100.00;78834.69;5054202;28;20051;-66
2022/03/26 07:33:18;;;;;;;51.20;23.17;;;;;;;-142.75;100.00;78830.75;5067870;28;20410;-66
2022/03/26 07:35:44;;;;;;;53.63;25.05;;;;;;;-142.75;100.00;78801.19;5067194;28;20278;-66
2022/03/26 07:38:10;;;;;;;54.90;25.55;;;;;;;-142.75;100.00;78775.59;5067458;28;20074;-66
2022/03/26 07:40:36;;;;;;;50.88;23.85;;;;;;;-142.75;100.00;78744.09;5068010;28;20470;-66
2022/03/26 07:43:02;;;;;;;52.22;24.00;;;;;;;-142.75;100.00;78724.38;5068052;28;20113;-66
2022/03/26 07:45:28;;;;;;;49.13;23.55;;;;;;;-142.75;100.00;78694.84;5067713;28;20026;-66
2022/03/26 07:47:53;;;;;;;49.95;23.50;;;;;;;-142.75;100.00;78655.44;5057754;28;20025;-65
2022/03/26 07:50:18;;;;;;;50.15;22.80;;;;;;;-142.75;100.00;78637.72;5047260;28;20025;-66
2022/03/26 07:52:44;;;;;;;49.40;23.08;;;;;;;-142.75;100.00;78631.81;5048173;28;20166;-66
2022/03/26 07:55:10;;;;;;;42.92;20.60;;;;;;;-142.75;100.00;78604.25;5050256;28;20087;-66
2022/03/26 07:57:36;;;;;;;50.20;22.90;;;;;;;-142.75;100.00;78562.88;5047728;28;20029;-66
2022/03/26 08:00:03;;;;;;;46.00;22.88;;;;;;;-142.75;100.00;78531.38;5047439;28;20474;-66
2022/03/26 08:02:29;;;;;;;43.72;21.02;;;;;;;-142.75;100.00;78555.00;5047846;28;20238;-67
2022/03/26 08:04:54;;;;;;;53.42;22.38;;;;;;;-142.75;100.00;78495.94;5047582;28;20036;-67
2022/03/26 08:07:21;;;;;;;50.80;21.00;;;;;;;-142.75;100.00;78456.53;5047580;28;20537;-66
2022/03/26 08:09:46;;;;;;;49.55;21.52;;;;;;;-142.75;100.00;78444.72;5047449;28;20100;-66
2022/03/26 08:12:12;;;;;;;42.63;20.77;;;;;;;-142.75;100.00;78397.44;5047546;28;20463;-66
2022/03/26 08:14:37;;;;;;;46.80;20.30;;;;;;;-142.75;100.00;78425.03;5059463;28;20123;-67
2022/03/26 08:17:03;;;;;;;47.47;19.35;;;;;;;-142.75;100.00;78399.44;5057227;28;20039;-65
2022/03/26 08:19:28;;;;;;;40.65;18.48;;;;;;;-142.75;100.00;78401.38;5066746;28;20448;-66
2022/03/26 08:21:54;;;;;;;43.55;18.35;;;;;;;-142.75;100.00;78379.72;5051033;28;20478;-66
2022/03/26 08:24:20;;;;;;;40.67;18.40;;;;;;;-142.75;100.00;78369.88;5047441;28;20131;-66
2022/03/26 08:26:45;;;;;;;;;;;;;;;-142.75;100.00;78381.69;5047829;28;20083;-67
2022/03/26 08:29:10;;;;;;;42.40;18.02;;;;;;;-142.75;100.00;78338.38;5047405;28;19970;-66
2022/03/26 08:31:35;;;;;;;;;;;;;;;-142.75;100.00;78320.66;5067337;28;20036;-66
2022/03/26 08:34:02;;;;;;;39.30;17.83;;;;;;;-142.75;100.00;78291.09;5067120;28;19912;-66
2022/03/26 08:36:27;;;;;;;41.10;18.60;;;;;;;-142.75;100.00;78241.88;5047094;28;20021;-66
2022/03/26 08:38:53;;;;;;;47.65;19.17;;;;;;;-142.75;100.00;78196.59;5047007;28;20025;-67
2022/03/26 08:41:19;;;;;;;;;;;;;;;-142.75;100.00;78178.84;5067302;28;20081;-66
2022/03/26 08:43:48;;;;;;;51.83;22.33;;;;;;;-142.75;100.00;78172.94;5059966;28;19930;-66
2022/03/26 08:46:13;;;;;;;49.38;20.42;;;;;;;-142.75;100.00;78178.84;5066704;28;20023;-67
2022/03/26 08:48:38;;;;;;;44.80;21.75;;;;;;;-142.75;100.00;78167.03;5066408;28;20028;-67
2022/03/26 08:51:04;;;;;;;43.08;21.20;;;;;;;-142.75;100.00;78119.78;5067891;28;20063;-66
2022/03/26 08:53:30;;;;;;;;;;;;;;;-142.75;100.00;78106.00;5066673;28;20028;-66
2022/03/26 08:55:55;;;;;;;49.13;20.52;;;;;;;-142.75;100.00;78106.00;5067135;28;20026;-67
2022/03/26 08:58:20;;;;;;;;;;;;;;;-142.75;100.00;78098.13;5066721;28;20135;-66
2022/03/26 09:00:47;;;;;;;46.20;21.98;;;;;;;-142.75;100.00;78070.56;5066654;28;20011;-66
2022/03/26 09:03:14;;;;;;;47.70;21.73;;;;;;;-142.75;100.00;78029.19;5066794;28;20078;-67
2022/03/26 09:05:39;;;;;;;45.40;21.73;;;;;;;-142.75;100.00;78015.41;5066893;28;20152;-67
2022/03/26 09:08:04;;;;;;;;;;;;;;;-142.75;100.00;78021.31;5066852;28;20080;-67
2022/03/26 09:10:30;;;;;;;46.08;20.80;;;;;;;-142.75;100.00;78050.84;5066627;28;20267;-67
2022/03/26 09:12:55;;;;;;;;;;;;;;;-142.75;100.00;78039.03;5066856;28;20097;-67
2022/03/26 09:15:20;;;;;;;46.67;21.00;;;;;;;-142.75;100.00;78048.88;5053008;28;19920;-67
2022/03/26 09:17:45;;;;;;;;;;;;;;;-142.75;100.00;78023.28;5047110;28;20041;-67
2022/03/26 09:20:11;;;;;;;46.67;21.48;;;;;;;-142.75;100.00;77997.69;5058401;28;19912;-66
2022/03/26 09:22:36;;;;;;;;;;;;;;;-142.75;100.00;77979.97;5067740;28;20036;-66
2022/03/26 09:25:03;;;;;;;40.28;19.30;;;;;;;-142.75;99.83;77948.47;5066383;28;19938;-67
2022/03/26 09:27:29;;;;;;;42.95;20.75;;;;;;;-142.75;100.00;77926.81;5066314;28;20513;-66
2022/03/26 09:29:54;;;;;;;;;;;;;;;-142.75;98.35;77928.78;5065196;28;20032;-66
2022/03/26 09:32:19;;;;;;;41.38;19.90;;;;;;;-142.75;98.19;77944.53;5066284;28;19912;-66
2022/03/26 09:34:44;;;;;;;;;;;;;;;-142.75;98.13;77924.84;5066823;28;20608;-66
2022/03/26 09:37:11;;;;;;;40.90;18.58;;;;;;;-142.75;99.59;77889.38;5067534;28;20336;-66
2022/03/26 09:39:37;;;;;;;39.25;18.67;;;;;;;-142.75;97.22;77883.47;5066507;28;20059;-66
2022/03/26 09:42:03;;;;;;;;;;;;;;;-142.75;97.23;77840.16;5067413;28;20498;-67
2022/03/26 09:44:31;;;;;;;38.38;17.95;;;;;;;-142.75;91.04;77779.13;5045731;28;19987;-67
2022/03/26 09:46:57;;;;;;;39.10;16.90;;;;;;;-142.75;83.86;77755.50;5046740;28;20040;-67
2022/03/26 09:49:22;;;;;;;35.20;18.10;;;;;;;-142.75;87.34;77723.97;5046599;28;20028;-67
2022/03/26 09:51:54;;;;;;;33.00;15.00;;;;;;;-142.75;84.96;77729.88;5047727;28;20025;-66
2022/03/26 09:54:20;;;;;;;30.88;15.10;;;;;;;-142.75;86.25;77690.50;5046161;28;20029;-67
2022/03/26 09:56:46;;;;;;;25.48;13.65;;;;;;;-142.75;84.99;77704.28;5055106;28;20070;-67
2022/03/26 09:59:11;;;;;;;31.70;12.93;;;;;;;-142.75;84.32;77657.03;5068192;28;20503;-67
2022/03/26 10:01:36;;;;;;;;;;;;;;;-142.75;71.87;77639.31;5058556;28;20037;-67
2022/03/26 10:04:16;;;;;;;24.35;10.43;;;;;;;-142.75;75.68;77629.47;5050384;28;19934;-67
2022/03/26 10:06:55;;;;;;;21.33;10.90;;;;;;;-142.75;73.09;77653.09;5054957;28;20036;-67
2022/03/26 10:09:40;;;;;;;23.50;11.70;;;;;;;-142.75;69.69;77603.88;5069936;28;20432;-68
2022/03/26 10:12:11;;;;;;;23.90;9.95;;;;;;;-142.75;73.00;77588.13;5071085;28;20059;-66
2022/03/26 10:14:43;;;;;;;20.45;10.02;;;;;;;-142.75;70.50;77590.09;5070171;28;20043;-67
2022/03/26 10:17:08;;;;;;;20.50;9.98;;;;;;;-142.75;72.12;77657.03;5070093;28;20057;-67
2022/03/26 10:19:35;;;;;;;23.00;10.35;;;;;;;-142.75;67.04;77617.66;5063875;28;20028;-67
2022/03/26 10:22:00;;;;;;;23.63;11.85;;;;;;;-142.75;74.14;77641.28;5070322;28;20573;-67
2022/03/26 10:24:26;;;;;;;22.05;11.73;;;;;;;-142.75;70.83;77631.44;5050049;28;20155;-67
2022/03/26 10:26:51;;;;;;;23.17;12.15;;;;;;;-142.75;69.88;77629.47;5056549;28;20062;-68
2022/03/26 10:29:16;;;;;;;20.73;11.02;;;;;;;-142.75;71.69;77643.25;5054635;28;20025;-66
2022/03/26 10:34:25;;;;;;;20.30;10.23;;;;;;;-142.75;72.33;77641.28;5063501;28;20067;-66
2022/03/26 10:36:53;;;;;;;25.45;12.50;;;;;;;-142.75;71.38;77605.84;5063239;28;20052;-67
2022/03/26 10:39:26;;;;;;;23.52;11.20;;;;;;;-142.75;71.87;77649.16;5069322;28;20024;-67
2022/03/26 10:41:53;;;;;;;16.67;9.95;;;;;;;-142.75;73.20;77637.34;5057882;28;20505;-67
2022/03/26 10:44:22;;;;;;;23.02;11.93;;;;;;;-142.75;74.26;77621.59;5049433;28;20020;-67
2022/03/26 10:46:51;;;;;;;22.08;11.60;;;;;;;-142.75;73.00;77621.59;5049155;28;20364;-68
2022/03/26 10:49:33;;;;;;;21.48;11.25;;;;;;;-142.75;69.41;77578.28;5049008;28;20032;-67
2022/03/26 10:52:13;;;;;;;22.02;10.80;;;;;;;-142.75;63.50;77509.38;5069772;28;20398;-67
2022/03/26 10:54:38;;;;;;;19.80;11.15;;;;;;;-142.75;65.90;77517.25;5068600;28;20032;-67
2022/03/26 10:57:05;;;;;;;25.10;13.43;;;;;;;-142.75;67.31;77538.91;5068639;28;20547;-67